createdAt,value
2019-05-01T00:00:57.192Z,59.94
2019-05-01T00:01:57.370Z,50.60
2019-05-01T00:02:57.546Z,74.12
2019-05-01T00:03:57.727Z,60.26
2019-05-01T00:04:58.882Z,51.88
2019-05-01T00:05:58.058Z,61.71
2019-05-01T00:06:58.230Z,82.34
2019-05-01T00:07:58.865Z,65.42
2019-05-01T00:08:59.515Z,61.23
2019-05-01T00:09:58.661Z,71.38
2019-05-01T00:10:58.826Z,55.11
2019-05-01T00:11:58.963Z,59.14
2019-05-01T00:12:59.119Z,49.47
2019-05-01T00:13:59.275Z,53.17
2019-05-01T00:14:59.411Z,49.95
2019-05-01T00:15:59.595Z,58.33
2019-05-01T00:16:59.733Z,69.61
2019-05-01T00:17:59.857Z,63.97
2019-05-01T00:19:00.015Z,66.71
2019-05-01T00:20:00.132Z,54.14
2019-05-01T00:21:00.295Z,57.52
2019-05-01T00:22:00.442Z,77.02
2019-05-01T00:23:00.611Z,60.26
2019-05-01T00:24:00.868Z,60.91
2019-05-01T00:25:01.964Z,59.30
2019-05-01T00:26:01.087Z,61.39
2019-05-01T00:27:01.376Z,68.80
2019-05-01T00:28:02.367Z,70.58
2019-05-01T00:29:01.592Z,58.01
2019-05-01T00:30:01.756Z,61.71
2019-05-01T00:31:01.915Z,60.91
2019-05-01T00:32:02.111Z,75.57
2019-05-01T00:33:02.259Z,60.91
2019-05-01T00:34:02.415Z,52.37
2019-05-01T00:35:02.611Z,67.51
2019-05-01T00:36:03.364Z,49.47
2019-05-01T00:37:02.927Z,56.88
2019-05-01T00:38:03.118Z,62.04
2019-05-01T00:39:03.298Z,57.36
2019-05-01T00:40:03.457Z,61.87
2019-05-01T00:41:04.367Z,53.01
2019-05-01T00:42:03.771Z,59.78
2019-05-01T00:43:03.973Z,51.88
2019-05-01T00:44:04.158Z,51.72
2019-05-01T00:45:04.320Z,60.59
2019-05-01T00:46:04.505Z,63.49
2019-05-01T00:47:04.676Z,53.01
2019-05-01T00:48:04.847Z,59.46
2019-05-01T00:49:05.050Z,51.56
2019-05-01T00:50:05.245Z,69.61
2019-05-01T00:51:05.433Z,57.52
2019-05-01T00:52:05.630Z,59.94
2019-05-01T00:53:06.376Z,62.36
2019-05-01T00:54:06.382Z,49.79
2019-05-01T00:55:06.050Z,58.81
2019-05-01T00:56:06.885Z,49.79
2019-05-01T00:57:06.414Z,49.15
2019-05-01T00:58:06.582Z,48.34
2019-05-01T00:59:06.874Z,47.05
2019-05-01T01:00:06.926Z,63.81
2019-05-01T01:01:07.112Z,50.60
2019-05-01T01:02:07.274Z,53.82
2019-05-01T01:03:07.430Z,51.56
2019-05-01T01:04:07.595Z,48.82
2019-05-01T01:05:07.772Z,60.42
2019-05-01T01:06:07.948Z,60.75
2019-05-01T01:07:08.138Z,62.20
2019-05-01T01:08:08.337Z,48.02
2019-05-01T01:09:08.500Z,46.57
2019-05-01T01:10:08.669Z,47.53
2019-05-01T01:11:08.857Z,64.61
2019-05-01T01:12:09.039Z,67.35
2019-05-01T01:13:09.207Z,69.13
2019-05-01T01:14:09.379Z,60.10
2019-05-01T01:15:09.538Z,57.52
2019-05-01T01:16:09.883Z,48.50
2019-05-01T01:17:10.383Z,56.56
2019-05-01T01:18:10.151Z,62.68
2019-05-01T01:19:10.320Z,62.04
2019-05-01T01:20:10.469Z,63.49
2019-05-01T01:21:10.634Z,49.63
2019-05-01T01:22:10.821Z,60.42
2019-05-01T01:23:10.968Z,60.91
2019-05-01T01:24:11.134Z,58.01
2019-05-01T01:25:11.319Z,47.86
2019-05-01T01:26:11.497Z,53.17
2019-05-01T01:27:11.716Z,60.42
2019-05-01T01:28:11.877Z,47.05
2019-05-01T01:29:12.060Z,50.43
2019-05-01T01:30:12.249Z,62.04
2019-05-01T01:31:12.448Z,58.01
2019-05-01T01:32:12.627Z,62.20
2019-05-01T01:33:12.805Z,47.70
2019-05-01T01:34:12.982Z,60.91
2019-05-01T01:35:13.180Z,52.85
2019-05-01T01:36:13.886Z,48.66
2019-05-01T01:37:13.545Z,56.24
2019-05-01T01:38:13.719Z,52.21
2019-05-01T01:39:13.907Z,56.56
2019-05-01T01:40:14.096Z,61.39
2019-05-01T01:41:14.251Z,48.18
2019-05-01T01:42:14.437Z,56.56
2019-05-01T01:43:14.622Z,69.77
2019-05-01T01:44:14.805Z,54.30
2019-05-01T01:45:14.980Z,48.82
2019-05-01T01:46:15.132Z,60.26
2019-05-01T01:47:15.267Z,47.05
2019-05-01T01:48:15.450Z,50.11
2019-05-01T01:49:15.605Z,55.27
2019-05-01T01:50:15.757Z,48.50
2019-05-01T01:51:15.905Z,48.02
2019-05-01T01:52:16.068Z,50.92
2019-05-01T01:53:16.239Z,57.52
2019-05-01T01:54:16.435Z,61.39
2019-05-01T01:55:16.617Z,53.98
2019-05-01T01:56:17.356Z,56.88
2019-05-01T01:57:18.018Z,56.24
2019-05-01T01:58:17.172Z,50.11
2019-05-01T01:59:17.369Z,56.88
2019-05-01T02:00:17.527Z,58.81
2019-05-01T02:01:17.673Z,48.98
2019-05-01T02:02:17.799Z,60.91
2019-05-01T02:03:17.985Z,55.43
2019-05-01T02:04:18.888Z,49.47
2019-05-01T02:05:18.282Z,47.05
2019-05-01T02:06:18.442Z,51.56
2019-05-01T02:07:18.608Z,47.05
2019-05-01T02:08:18.835Z,61.39
2019-05-01T02:09:19.013Z,48.18
2019-05-01T02:10:19.248Z,56.88
2019-05-01T02:11:19.314Z,61.39
2019-05-01T02:12:19.497Z,49.31
2019-05-01T02:13:19.665Z,52.37
2019-05-01T02:14:19.846Z,61.23
2019-05-01T02:15:20.013Z,59.14
2019-05-01T02:16:20.162Z,53.50
2019-05-01T02:17:20.320Z,49.47
2019-05-01T02:18:20.890Z,56.07
2019-05-01T02:19:20.676Z,51.88
2019-05-01T02:20:21.831Z,51.56
2019-05-01T02:21:20.986Z,52.85
2019-05-01T02:22:21.149Z,58.65
2019-05-01T02:23:21.424Z,55.59
2019-05-01T02:24:21.446Z,50.60
2019-05-01T02:25:21.547Z,48.82
2019-05-01T02:26:21.786Z,57.85
2019-05-01T02:27:22.389Z,50.43
2019-05-01T02:28:22.247Z,51.72
2019-05-01T02:29:22.474Z,52.05
2019-05-01T02:30:22.679Z,50.43
2019-05-01T02:31:28.066Z,48.50
2019-05-01T02:32:25.121Z,56.72
2019-05-01T02:33:23.351Z,47.05
2019-05-01T02:34:23.481Z,50.60
2019-05-01T02:35:23.571Z,53.50
2019-05-01T02:36:23.768Z,53.82
2019-05-01T02:37:23.918Z,50.92
2019-05-01T02:38:24.165Z,53.98
2019-05-01T02:39:24.411Z,48.82
2019-05-01T02:40:24.521Z,52.05
2019-05-01T02:41:24.666Z,53.66
2019-05-01T02:42:24.804Z,60.91
2019-05-01T02:43:24.945Z,61.71
2019-05-01T02:44:25.214Z,54.62
2019-05-01T02:45:25.354Z,54.46
2019-05-01T02:46:25.496Z,60.91
2019-05-01T02:47:25.652Z,50.11
2019-05-01T02:48:25.807Z,51.40
2019-05-01T02:49:25.964Z,51.56
2019-05-01T02:50:26.130Z,53.98
2019-05-01T02:51:26.880Z,55.59
2019-05-01T02:52:26.492Z,56.07
2019-05-01T02:53:26.639Z,54.95
2019-05-01T02:54:26.896Z,56.07
2019-05-01T02:55:27.402Z,60.26
2019-05-01T02:56:27.072Z,58.49
2019-05-01T02:57:27.225Z,57.20
2019-05-01T02:58:27.379Z,58.81
2019-05-01T02:59:27.522Z,60.42
2019-05-01T03:00:27.698Z,59.94
2019-05-01T03:01:44.695Z,87.82
2019-05-01T03:02:30.100Z,102.32
2019-05-01T03:03:28.349Z,104.90
2019-05-01T03:04:28.504Z,105.22
2019-05-01T03:05:28.661Z,104.90
2019-05-01T03:06:28.787Z,105.22
2019-05-01T03:07:28.932Z,105.70
2019-05-01T03:08:29.058Z,105.22
2019-05-01T03:09:29.204Z,105.22
2019-05-01T03:10:29.892Z,106.67
2019-05-01T03:11:29.621Z,85.08
2019-05-01T03:12:29.744Z,82.18
2019-05-01T03:13:29.867Z,85.08
2019-05-01T03:14:29.999Z,83.95
2019-05-01T03:15:30.150Z,83.31
2019-05-01T03:16:30.331Z,83.95
2019-05-01T03:17:30.463Z,84.92
2019-05-01T03:18:30.619Z,86.21
2019-05-01T03:19:30.781Z,82.82
2019-05-01T03:20:30.904Z,83.47
2019-05-01T03:21:31.057Z,79.60
2019-05-01T03:22:31.196Z,79.60
2019-05-01T03:23:31.350Z,82.02
2019-05-01T03:24:31.526Z,81.37
2019-05-01T03:25:31.662Z,81.05
2019-05-01T03:26:31.789Z,81.05
2019-05-01T03:27:31.938Z,81.69
2019-05-01T03:28:32.067Z,81.05
2019-05-01T03:29:32.231Z,80.89
2019-05-01T03:30:32.383Z,78.96
2019-05-01T03:31:32.520Z,76.54
2019-05-01T03:32:32.694Z,66.06
2019-05-01T03:33:33.847Z,68.96
2019-05-01T03:34:33.978Z,77.18
2019-05-01T03:35:33.179Z,75.57
2019-05-01T03:36:34.234Z,79.12
2019-05-01T03:37:33.378Z,78.79
2019-05-01T03:38:34.390Z,76.54
2019-05-01T03:39:33.768Z,66.23
2019-05-01T03:40:33.926Z,58.17
2019-05-01T03:41:34.092Z,56.40
2019-05-01T03:42:34.295Z,56.07
2019-05-01T03:43:34.485Z,54.30
2019-05-01T03:44:34.666Z,53.17
2019-05-01T03:45:34.806Z,62.68
2019-05-01T03:46:34.953Z,69.29
2019-05-01T03:47:35.110Z,56.24
2019-05-01T03:48:35.894Z,62.84
2019-05-01T03:49:35.539Z,76.22
2019-05-01T03:50:35.703Z,73.96
2019-05-01T03:51:35.858Z,70.74
2019-05-01T03:52:36.021Z,71.70
2019-05-01T03:53:36.234Z,68.00
2019-05-01T03:54:36.447Z,64.45
2019-05-01T03:55:36.639Z,59.78
2019-05-01T03:56:36.814Z,55.43
2019-05-01T03:57:37.876Z,60.91
2019-05-01T03:58:37.129Z,58.17
2019-05-01T03:59:37.351Z,56.72
2019-05-01T04:00:38.380Z,62.84
2019-05-01T04:01:37.737Z,56.72
2019-05-01T04:02:37.879Z,54.79
2019-05-01T04:03:38.030Z,57.36
2019-05-01T04:04:38.190Z,58.65
2019-05-01T04:05:38.880Z,54.62
2019-05-01T04:06:38.908Z,63.97
2019-05-01T04:07:38.663Z,58.81
2019-05-01T04:08:38.830Z,55.91
2019-05-01T04:09:39.057Z,59.62
2019-05-01T04:10:39.221Z,60.26
2019-05-01T04:11:39.379Z,62.36
2019-05-01T04:12:39.533Z,59.14
2019-05-01T04:13:39.709Z,76.05
2019-05-01T04:14:39.877Z,67.51
2019-05-01T04:15:40.020Z,55.91
2019-05-01T04:16:40.247Z,49.79
2019-05-01T04:17:40.425Z,55.27
2019-05-01T04:18:40.563Z,58.97
2019-05-01T04:19:40.728Z,78.63
2019-05-01T04:20:40.910Z,60.91
2019-05-01T04:21:41.065Z,61.87
2019-05-01T04:22:41.235Z,58.01
2019-05-01T04:23:41.391Z,76.22
2019-05-01T04:24:41.551Z,53.98
2019-05-01T04:25:41.748Z,59.30
2019-05-01T04:26:42.909Z,58.81
2019-05-01T04:27:42.156Z,62.20
2019-05-01T04:28:42.338Z,59.14
2019-05-01T04:29:42.500Z,48.50
2019-05-01T04:30:42.644Z,59.94
2019-05-01T04:31:42.812Z,48.98
2019-05-01T04:32:52.822Z,47.05
2019-05-01T04:33:45.226Z,59.78
2019-05-01T04:34:43.348Z,58.49
2019-05-01T04:35:43.604Z,47.70
2019-05-01T04:36:44.400Z,49.31
2019-05-01T04:37:43.819Z,66.06
2019-05-01T04:38:43.984Z,67.84
2019-05-01T04:39:45.152Z,67.19
2019-05-01T04:40:44.317Z,54.30
2019-05-01T04:41:45.387Z,56.72
2019-05-01T04:42:44.638Z,63.16
2019-05-01T04:43:45.405Z,49.15
2019-05-01T04:44:45.039Z,48.82
2019-05-01T04:45:45.201Z,49.47
2019-05-01T04:46:46.380Z,60.91
2019-05-01T04:47:45.482Z,58.65
2019-05-01T04:48:45.699Z,62.20
2019-05-01T04:49:45.862Z,59.14
2019-05-01T04:50:46.066Z,63.00
2019-05-01T04:51:46.269Z,56.24
2019-05-01T04:52:46.454Z,58.01
2019-05-01T04:53:46.626Z,55.11
2019-05-01T04:54:46.794Z,61.39
2019-05-01T04:55:46.956Z,58.81
2019-05-01T04:56:47.137Z,67.84
2019-05-01T04:57:47.295Z,54.79
2019-05-01T04:58:47.451Z,58.81
2019-05-01T04:59:47.720Z,49.79
2019-05-01T05:00:48.403Z,61.23
2019-05-01T05:01:47.961Z,71.22
2019-05-01T05:02:48.188Z,59.14
2019-05-01T05:03:48.327Z,53.01
2019-05-01T05:04:49.520Z,56.07
2019-05-01T05:05:48.790Z,61.39
2019-05-01T05:06:48.964Z,61.39
2019-05-01T05:07:49.093Z,55.91
2019-05-01T05:08:49.217Z,53.50
2019-05-01T05:09:49.891Z,50.76
2019-05-01T05:10:50.392Z,59.14
2019-05-01T05:11:49.760Z,64.61
2019-05-01T05:12:49.969Z,57.69
2019-05-01T05:13:50.891Z,49.47
2019-05-01T05:14:50.238Z,52.37
2019-05-01T05:15:50.469Z,48.66
2019-05-01T05:16:50.702Z,54.95
2019-05-01T05:17:50.976Z,48.98
2019-05-01T05:18:51.089Z,59.94
2019-05-01T05:19:51.335Z,59.46
2019-05-01T05:20:51.460Z,71.54
2019-05-01T05:21:51.583Z,55.59
2019-05-01T05:22:51.739Z,54.30
2019-05-01T05:23:51.902Z,55.59
2019-05-01T05:24:52.032Z,60.91
2019-05-01T05:25:52.918Z,70.58
2019-05-01T05:26:52.410Z,58.97
2019-05-01T05:27:52.591Z,49.79
2019-05-01T05:28:52.713Z,53.17
2019-05-01T05:29:52.839Z,48.66
2019-05-01T05:30:52.977Z,60.10
2019-05-01T05:31:53.112Z,59.94
2019-05-01T05:32:53.239Z,67.03
2019-05-01T05:33:54.403Z,58.81
2019-05-01T05:34:53.521Z,72.51
2019-05-01T05:35:54.396Z,49.79
2019-05-01T05:36:53.771Z,51.24
2019-05-01T05:37:54.394Z,50.27
2019-05-01T05:38:54.138Z,58.49
2019-05-01T05:39:54.291Z,54.79
2019-05-01T05:40:54.433Z,55.27
2019-05-01T05:41:54.553Z,56.88
2019-05-01T05:42:54.694Z,59.78
2019-05-01T05:43:54.890Z,67.03
2019-05-01T05:44:55.057Z,56.40
2019-05-01T05:45:55.210Z,49.79
2019-05-01T05:46:55.334Z,54.46
2019-05-01T05:47:55.537Z,55.91
2019-05-01T05:48:55.729Z,54.95
2019-05-01T05:49:56.396Z,56.88
2019-05-01T05:50:56.054Z,56.07
2019-05-01T05:51:56.228Z,48.82
2019-05-01T05:52:56.899Z,58.65
2019-05-01T05:53:57.402Z,69.61
2019-05-01T05:54:56.800Z,60.26
2019-05-01T05:55:56.984Z,55.27
2019-05-01T05:56:57.186Z,56.56
2019-05-01T05:57:57.348Z,58.33
2019-05-01T05:58:57.541Z,60.10
2019-05-01T05:59:57.921Z,52.21
2019-05-01T06:00:57.846Z,75.89
2019-05-01T06:01:58.004Z,51.40
2019-05-01T06:02:58.165Z,61.39
2019-05-01T06:03:58.313Z,60.91
2019-05-01T06:04:58.504Z,60.10
2019-05-01T06:05:58.673Z,48.50
2019-05-01T06:06:58.825Z,55.43
2019-05-01T06:07:59.912Z,61.55
2019-05-01T06:08:59.158Z,52.37
2019-05-01T06:09:59.305Z,71.22
2019-05-01T06:11:00.166Z,49.95
2019-05-01T06:12:04.783Z,61.55
2019-05-01T06:13:00.784Z,62.68
2019-05-01T06:14:00.029Z,72.35
2019-05-01T06:15:06.028Z,70.90
2019-05-01T06:16:02.302Z,61.07
2019-05-01T06:17:00.532Z,58.65
2019-05-01T06:18:04.161Z,57.04
2019-05-01T06:19:01.842Z,77.99
2019-05-01T06:20:00.944Z,49.63
2019-05-01T06:21:02.266Z,77.18
2019-05-01T06:22:04.996Z,60.26
2019-05-01T06:23:03.412Z,60.10
2019-05-01T06:24:06.461Z,60.75
2019-05-01T06:25:03.858Z,70.09
2019-05-01T06:26:02.579Z,75.57
2019-05-01T06:27:03.295Z,78.15
2019-05-01T06:28:02.399Z,75.89
2019-05-01T06:29:02.644Z,60.91
2019-05-01T06:30:06.494Z,60.75
2019-05-01T06:31:04.019Z,55.43
2019-05-01T06:32:03.177Z,58.81
2019-05-01T06:33:04.221Z,65.10
2019-05-01T06:34:05.522Z,56.72
2019-05-01T06:35:04.665Z,61.39
2019-05-01T06:36:03.910Z,75.73
2019-05-01T06:37:05.171Z,55.27
2019-05-01T06:38:04.423Z,62.52
2019-05-01T06:39:06.755Z,51.40
2019-05-01T06:40:06.775Z,52.21
2019-05-01T06:41:04.983Z,59.14
2019-05-01T06:42:05.115Z,59.62
2019-05-01T06:43:05.271Z,50.60
2019-05-01T06:44:07.585Z,55.91
2019-05-01T06:45:06.513Z,71.06
2019-05-01T06:46:06.412Z,65.26
2019-05-01T06:47:05.879Z,62.84
2019-05-01T06:48:06.049Z,68.00
2019-05-01T06:49:07.105Z,60.75
2019-05-01T06:50:07.573Z,65.10
2019-05-01T06:51:07.411Z,57.69
2019-05-01T06:52:06.628Z,62.36
2019-05-01T06:53:06.874Z,68.00
2019-05-01T06:54:11.397Z,57.52
2019-05-01T06:55:08.275Z,57.36
2019-05-01T06:56:08.408Z,59.46
2019-05-01T06:57:07.644Z,66.87
2019-05-01T06:58:08.415Z,67.84
2019-05-01T06:59:08.043Z,65.42
2019-05-01T07:00:09.448Z,58.49
2019-05-01T07:01:08.394Z,62.04
2019-05-01T07:02:08.529Z,58.65
2019-05-01T07:03:10.464Z,54.46
2019-05-01T07:04:09.913Z,53.50
2019-05-01T07:05:14.551Z,68.64
2019-05-01T07:06:14.377Z,76.22
2019-05-01T07:07:24.750Z,67.35
2019-05-01T07:08:23.979Z,67.84
2019-05-01T07:09:11.931Z,54.14
2019-05-01T07:10:11.060Z,58.97
2019-05-01T07:11:10.868Z,69.29
2019-05-01T07:12:12.382Z,69.29
2019-05-01T07:13:10.597Z,71.87
2019-05-01T07:14:11.115Z,71.87
2019-05-01T07:15:12.989Z,60.91
2019-05-01T07:16:11.188Z,75.25
2019-05-01T07:17:13.544Z,61.55
2019-05-01T07:18:12.556Z,78.15
2019-05-01T07:19:11.699Z,57.52
2019-05-01T07:20:16.571Z,72.35
2019-05-01T07:21:13.041Z,66.87
2019-05-01T07:22:12.173Z,63.16
2019-05-01T07:23:12.779Z,61.07
2019-05-01T07:24:13.530Z,52.53
2019-05-01T07:25:13.417Z,59.14
2019-05-01T07:26:13.710Z,63.00
2019-05-01T07:27:13.984Z,58.65
2019-05-01T07:28:13.116Z,59.78
2019-05-01T07:29:13.303Z,60.10
2019-05-01T07:30:15.900Z,71.54
2019-05-01T07:31:15.621Z,60.91
2019-05-01T07:32:15.152Z,80.08
2019-05-01T07:33:16.642Z,73.15
2019-05-01T07:34:16.648Z,56.88
2019-05-01T07:35:15.370Z,56.56
2019-05-01T07:36:16.318Z,56.88
2019-05-01T07:37:15.640Z,65.58
2019-05-01T07:38:14.826Z,67.51
2019-05-01T07:39:15.858Z,67.19
2019-05-01T07:40:15.187Z,68.48
2019-05-01T07:41:15.340Z,67.35
2019-05-01T07:42:15.529Z,58.01
2019-05-01T07:43:18.990Z,57.52
2019-05-01T07:44:16.927Z,55.91
2019-05-01T07:45:16.070Z,57.52
2019-05-01T07:46:18.462Z,66.55
2019-05-01T07:47:18.423Z,68.80
2019-05-01T07:48:16.670Z,57.36
2019-05-01T07:49:17.695Z,69.93
2019-05-01T07:50:18.032Z,71.70
2019-05-01T07:51:17.219Z,75.89
2019-05-01T07:52:18.730Z,72.83
2019-05-01T07:53:17.590Z,75.89
2019-05-01T07:54:17.760Z,67.35
2019-05-01T07:55:20.103Z,72.35
2019-05-01T07:56:18.212Z,74.28
2019-05-01T07:57:18.370Z,69.77
2019-05-01T07:58:18.538Z,70.58
2019-05-01T07:59:22.874Z,78.15
2019-05-01T08:00:20.922Z,67.84
2019-05-01T08:01:20.159Z,71.87
2019-05-01T08:02:19.330Z,63.65
2019-05-01T08:03:20.425Z,65.58
2019-05-01T08:04:35.233Z,66.23
2019-05-01T08:05:20.907Z,57.20
2019-05-01T08:06:21.487Z,58.81
2019-05-01T08:07:21.235Z,59.78
2019-05-01T08:08:20.463Z,57.20
2019-05-01T08:09:20.607Z,56.07
2019-05-01T08:10:21.024Z,57.04
2019-05-01T08:11:21.974Z,54.79
2019-05-01T08:12:23.927Z,61.87
2019-05-01T08:13:22.202Z,64.45
2019-05-01T08:14:21.441Z,72.35
2019-05-01T08:15:22.582Z,69.29
2019-05-01T08:16:23.758Z,58.01
2019-05-01T08:17:21.848Z,78.63
2019-05-01T08:18:24.082Z,74.28
2019-05-01T08:19:24.231Z,72.03
2019-05-01T08:20:22.453Z,60.42
2019-05-01T08:21:26.004Z,64.45
2019-05-01T08:22:23.758Z,69.77
2019-05-01T08:23:22.902Z,64.13
2019-05-01T08:24:24.726Z,73.96
2019-05-01T08:25:24.253Z,67.84
2019-05-01T08:26:23.474Z,68.64
2019-05-01T08:27:23.602Z,61.39
2019-05-01T08:28:27.616Z,58.17
2019-05-01T08:29:23.862Z,61.23
2019-05-01T08:30:24.443Z,65.10
2019-05-01T08:31:27.776Z,72.67
2019-05-01T08:32:25.544Z,60.59
2019-05-01T08:33:24.782Z,60.59
2019-05-01T08:34:25.404Z,66.87
2019-05-01T08:35:26.117Z,61.07
2019-05-01T08:36:25.358Z,62.04
2019-05-01T08:37:27.126Z,68.16
2019-05-01T08:38:29.867Z,61.39
2019-05-01T08:39:26.828Z,62.52
2019-05-01T08:40:26.048Z,73.32
2019-05-01T08:41:27.016Z,63.65
2019-05-01T08:42:28.430Z,69.61
2019-05-01T08:43:26.939Z,68.96
2019-05-01T08:44:29.537Z,57.04
2019-05-01T08:45:28.045Z,67.84
2019-05-01T08:46:27.280Z,68.64
2019-05-01T08:47:27.934Z,62.20
2019-05-01T08:48:30.870Z,59.30
2019-05-01T08:49:28.792Z,62.20
2019-05-01T08:50:27.914Z,62.04
2019-05-01T08:51:29.996Z,68.48
2019-05-01T08:52:30.310Z,64.94
2019-05-01T08:53:28.409Z,66.55
2019-05-01T08:54:28.881Z,67.35
2019-05-01T08:55:29.747Z,61.71
2019-05-01T08:56:28.876Z,75.41
2019-05-01T08:57:50.072Z,63.97
2019-05-01T08:58:29.170Z,60.26
2019-05-01T08:59:29.348Z,66.06
2019-05-01T09:00:30.927Z,56.88
2019-05-01T09:01:31.644Z,68.80
2019-05-01T09:02:29.878Z,70.74
2019-05-01T09:03:30.061Z,60.10
2019-05-01T09:04:32.244Z,61.07
2019-05-01T09:05:33.937Z,59.14
2019-05-01T09:06:34.866Z,62.84
2019-05-01T09:07:33.449Z,57.36
2019-05-01T09:08:32.162Z,59.78
2019-05-01T09:09:33.331Z,56.72
2019-05-01T09:10:32.313Z,64.13
2019-05-01T09:11:31.786Z,58.97
2019-05-01T09:12:32.584Z,58.01
2019-05-01T09:13:31.756Z,64.78
2019-05-01T09:14:35.177Z,63.49
2019-05-01T09:15:33.075Z,69.45
2019-05-01T09:16:32.229Z,68.48
2019-05-01T09:17:32.400Z,59.30
2019-05-01T09:18:32.624Z,57.52
2019-05-01T09:19:32.809Z,58.65
2019-05-01T09:20:34.007Z,58.01
2019-05-01T09:21:37.183Z,62.20
2019-05-01T09:22:34.384Z,57.69
2019-05-01T09:23:34.624Z,61.07
2019-05-01T09:24:34.688Z,57.36
2019-05-01T09:25:35.231Z,58.17
2019-05-01T09:26:35.943Z,72.67
2019-05-01T09:27:34.236Z,69.29
2019-05-01T09:28:36.021Z,58.49
2019-05-01T09:29:35.548Z,57.36
2019-05-01T09:30:35.829Z,53.50
2019-05-01T09:31:35.558Z,76.05
2019-05-01T09:32:36.183Z,59.62
2019-05-01T09:33:35.340Z,56.40
2019-05-01T09:34:35.527Z,61.87
2019-05-01T09:35:40.283Z,66.06
2019-05-01T09:36:36.905Z,51.08
2019-05-01T09:37:36.936Z,61.55
2019-05-01T09:38:36.215Z,56.88
2019-05-01T09:39:36.440Z,57.04
2019-05-01T09:40:36.624Z,54.95
2019-05-01T09:41:38.405Z,59.94
2019-05-01T09:42:37.970Z,55.43
2019-05-01T09:43:37.944Z,60.75
2019-05-01T09:44:37.344Z,61.23
2019-05-01T09:45:37.529Z,56.72
2019-05-01T09:46:37.782Z,68.48
2019-05-01T09:47:37.930Z,54.46
2019-05-01T09:48:38.080Z,67.35
2019-05-01T09:49:38.226Z,64.61
2019-05-01T09:50:38.400Z,56.72
2019-05-01T09:51:42.590Z,63.81
2019-05-01T09:52:39.717Z,61.87
2019-05-01T09:53:41.111Z,71.54
2019-05-01T09:54:43.041Z,56.24
2019-05-01T09:55:40.178Z,57.69
2019-05-01T09:56:39.460Z,55.91
2019-05-01T09:57:41.497Z,66.55
2019-05-01T09:58:40.814Z,64.45
2019-05-01T09:59:40.047Z,66.71
2019-05-01T10:00:40.185Z,56.88
2019-05-01T10:01:40.353Z,68.00
2019-05-01T10:02:42.089Z,62.04
2019-05-01T10:03:41.645Z,71.87
2019-05-01T10:04:40.777Z,68.48
2019-05-01T10:05:42.829Z,69.45
2019-05-01T10:06:42.462Z,66.39
2019-05-01T10:07:41.232Z,70.42
2019-05-01T10:08:42.407Z,68.48
2019-05-01T10:09:42.652Z,58.17
2019-05-01T10:10:42.474Z,63.65
2019-05-01T10:11:42.106Z,67.35
2019-05-01T10:12:47.014Z,68.16
2019-05-01T10:13:44.290Z,65.10
2019-05-01T10:14:42.408Z,64.78
2019-05-01T10:15:42.577Z,69.61
2019-05-01T10:16:42.758Z,68.00
2019-05-01T10:17:42.897Z,58.01
2019-05-01T10:18:43.079Z,71.38
2019-05-01T10:19:43.237Z,62.36
2019-05-01T10:20:43.391Z,59.30
2019-05-01T10:21:43.519Z,60.75
2019-05-01T10:22:43.679Z,62.68
2019-05-01T10:23:47.126Z,58.81
2019-05-01T10:24:45.004Z,66.23
2019-05-01T10:25:48.100Z,66.87
2019-05-01T10:26:46.262Z,68.96
2019-05-01T10:27:45.428Z,70.25
2019-05-01T10:28:45.204Z,67.35
2019-05-01T10:29:45.810Z,62.52
2019-05-01T10:30:45.043Z,62.20
2019-05-01T10:31:46.658Z,54.95
2019-05-01T10:32:46.431Z,65.58
2019-05-01T10:33:45.543Z,68.96
2019-05-01T10:34:45.744Z,59.14
2019-05-01T10:35:45.907Z,60.10
2019-05-01T10:36:49.885Z,62.04
2019-05-01T10:37:48.191Z,53.82
2019-05-01T10:38:46.887Z,50.27
2019-05-01T10:39:50.266Z,53.17
2019-05-01T10:40:48.691Z,55.91
2019-05-01T10:41:47.924Z,55.75
2019-05-01T10:42:46.980Z,56.88
2019-05-01T10:43:47.187Z,71.22
2019-05-01T10:44:47.360Z,69.93
2019-05-01T10:45:47.562Z,57.04
2019-05-01T10:46:47.727Z,68.00
2019-05-01T10:47:47.908Z,62.52
2019-05-01T10:48:48.479Z,57.52
2019-05-01T10:49:48.279Z,66.55
2019-05-01T10:50:48.450Z,56.40
2019-05-01T10:51:48.609Z,55.11
2019-05-01T10:52:48.793Z,54.95
2019-05-01T10:53:48.982Z,54.79
2019-05-01T10:54:49.149Z,59.94
2019-05-01T10:55:49.329Z,62.52
2019-05-01T10:56:49.505Z,64.61
2019-05-01T10:57:49.695Z,62.84
2019-05-01T10:58:49.879Z,64.78
2019-05-01T10:59:50.959Z,63.33
2019-05-01T11:00:50.235Z,63.16
2019-05-01T11:01:50.445Z,63.97
2019-05-01T11:02:50.612Z,61.87
2019-05-01T11:03:50.764Z,65.90
2019-05-01T11:04:50.908Z,66.39
2019-05-01T11:05:56.205Z,64.45
2019-05-01T11:06:53.476Z,69.13
2019-05-01T11:07:51.430Z,67.19
2019-05-01T11:08:51.538Z,56.72
2019-05-01T11:09:51.677Z,62.68
2019-05-01T11:10:51.822Z,63.16
2019-05-01T11:11:52.004Z,65.10
2019-05-01T11:12:52.127Z,65.10
2019-05-01T11:13:52.368Z,57.52
2019-05-01T11:14:52.513Z,56.72
2019-05-01T11:15:52.640Z,60.26
2019-05-01T11:16:53.476Z,61.87
2019-05-01T11:17:52.989Z,65.58
2019-05-01T11:18:53.166Z,62.68
2019-05-01T11:19:53.328Z,66.55
2019-05-01T11:20:53.487Z,60.26
2019-05-01T11:21:53.658Z,64.45
2019-05-01T11:22:53.853Z,61.55
2019-05-01T11:23:54.021Z,64.29
2019-05-01T11:24:54.223Z,64.13
2019-05-01T11:25:54.383Z,65.26
2019-05-01T11:26:54.513Z,63.81
2019-05-01T11:27:54.669Z,65.74
2019-05-01T11:28:55.486Z,61.07
2019-05-01T11:29:54.999Z,63.49
2019-05-01T11:30:55.142Z,65.90
2019-05-01T11:31:55.284Z,61.39
2019-05-01T11:32:55.444Z,55.91
2019-05-01T11:33:56.476Z,66.87
2019-05-01T11:34:55.740Z,67.19
2019-05-01T11:36:08.363Z,67.84
2019-05-01T11:36:57.050Z,63.33
2019-05-01T11:37:56.191Z,65.10
2019-05-01T11:38:56.423Z,60.59
2019-05-01T11:39:57.473Z,61.87
2019-05-01T11:40:56.770Z,67.03
2019-05-01T11:41:56.939Z,62.04
2019-05-01T11:42:57.153Z,63.16
2019-05-01T11:43:57.366Z,60.26
2019-05-01T11:44:57.539Z,69.13
2019-05-01T11:45:57.739Z,71.54
2019-05-01T11:46:57.901Z,63.00
2019-05-01T11:47:58.077Z,63.00
2019-05-01T11:48:58.251Z,67.35
2019-05-01T11:49:58.449Z,69.61
2019-05-01T11:50:58.604Z,67.68
2019-05-01T11:51:58.797Z,68.00
2019-05-01T11:52:58.995Z,77.02
2019-05-01T11:54:02.061Z,61.23
2019-05-01T11:54:59.492Z,56.07
2019-05-01T11:55:59.543Z,61.39
2019-05-01T11:56:59.698Z,59.14
2019-05-01T11:57:59.853Z,59.62
2019-05-01T11:59:00.010Z,69.45
2019-05-01T12:00:00.510Z,68.96
2019-05-01T12:01:00.341Z,62.36
2019-05-01T12:02:02.453Z,65.90
2019-05-01T12:03:01.730Z,82.02
2019-05-01T12:04:01.862Z,74.28
2019-05-01T12:05:01.000Z,75.73
2019-05-01T12:06:01.192Z,78.15
2019-05-01T12:07:01.363Z,69.29
2019-05-01T12:08:01.532Z,82.50
2019-05-01T12:09:01.735Z,62.36
2019-05-01T12:10:01.911Z,64.94
2019-05-01T12:11:02.137Z,62.68
2019-05-01T12:12:02.301Z,66.39
2019-05-01T12:13:02.465Z,65.90
2019-05-01T12:14:02.609Z,62.36
2019-05-01T12:15:03.495Z,54.46
2019-05-01T12:16:02.930Z,66.23
2019-05-01T12:17:03.996Z,54.95
2019-05-01T12:18:03.251Z,58.81
2019-05-01T12:19:03.410Z,68.96
2019-05-01T12:20:03.555Z,57.04
2019-05-01T12:21:03.760Z,53.66
2019-05-01T12:22:03.894Z,62.68
2019-05-01T12:23:04.038Z,67.35
2019-05-01T12:24:04.184Z,57.69
2019-05-01T12:25:04.329Z,56.40
2019-05-01T12:26:04.504Z,69.29
2019-05-01T12:27:04.652Z,55.91
2019-05-01T12:28:04.773Z,71.87
2019-05-01T12:29:04.897Z,58.33
2019-05-01T12:30:05.032Z,63.49
2019-05-01T12:31:05.198Z,62.20
2019-05-01T12:32:05.371Z,63.16
2019-05-01T12:33:05.494Z,68.48
2019-05-01T12:34:06.493Z,56.07
2019-05-01T12:35:05.843Z,53.17
2019-05-01T12:36:06.081Z,63.16
2019-05-01T12:37:06.235Z,78.47
2019-05-01T12:38:06.362Z,58.65
2019-05-01T12:39:06.483Z,57.69
2019-05-01T12:40:06.725Z,62.20
2019-05-01T12:41:07.016Z,71.22
2019-05-01T12:42:07.155Z,63.97
2019-05-01T12:43:07.304Z,61.71
2019-05-01T12:44:07.482Z,72.35
2019-05-01T12:45:07.598Z,67.84
2019-05-01T12:46:07.851Z,63.16
2019-05-01T12:47:08.023Z,69.77
2019-05-01T12:48:08.184Z,60.75
2019-05-01T12:49:08.336Z,67.35
2019-05-01T12:50:08.469Z,63.33
2019-05-01T12:51:08.609Z,68.64
2019-05-01T12:52:10.466Z,63.97
2019-05-01T12:53:10.049Z,63.49
2019-05-01T12:54:09.156Z,66.87
2019-05-01T12:55:10.011Z,64.78